Time;durP1;ratioP1;P1;durP2;ratioP2;P2;SDS_P1;SDS_P2;PMS_P1;PMS_P2;Temp;Humidity;BMP_temperature;BMP_pressure;BME280_temperature;BME280_humidity;BME280_pressure;Samples;Min_cycle;Max_cycle;Signal;HPM_P1;HPM_P2
2022/09/04 00:02:03;;;;;;;;;11.33;11.33;;;;;19.66;70.55;100941.25;5020897;28;45449;-77
2022/09/04 00:04:50;;;;;;;;;12.33;12.00;;;;;19.62;70.56;100942.78;5018843;28;45966;-77
2022/09/04 00:07:37;;;;;;;;;12.00;11.67;;;;;19.53;70.72;100933.34;5018713;28;46635;-76
2022/09/04 00:10:21;;;;;;;;;10.00;10.00;;;;;19.57;70.90;100944.53;5018549;28;45459;-76
2022/09/04 00:12:55;;;;;;;;;10.33;10.33;;;;;19.49;71.09;100941.09;5016897;27;45317;-76
2022/09/04 00:15:30;;;;;;;;;12.00;12.00;;;;;19.49;70.87;100946.50;5029064;28;46417;-77
2022/09/04 00:17:58;;;;;;;;;12.00;11.33;;;;;19.49;70.71;100942.97;5019194;28;45388;-75
2022/09/04 00:20:31;;;;;;;;;9.67;9.67;;;;;19.42;70.82;100945.75;5028698;28;45309;-76
2022/09/04 00:23:25;;;;;;;;;10.00;10.00;;;;;19.43;71.24;100948.22;5018393;28;45276;-77
2022/09/04 00:26:06;;;;;;;;;12.00;10.67;;;;;19.39;70.95;100946.19;5019476;28;45403;-76
2022/09/04 00:28:34;;;;;;;;;9.67;9.67;;;;;19.36;71.14;100947.47;5019217;28;45462;-76
2022/09/04 00:31:18;;;;;;;;;11.33;11.33;;;;;19.38;71.07;100961.56;5018510;28;45336;-77
2022/09/04 00:34:01;;;;;;;;;11.00;11.00;;;;;19.30;71.15;100957.31;5026218;28;45305;-76
2022/09/04 00:36:27;;;;;;;;;11.00;11.00;;;;;19.27;71.44;100962.31;5020535;28;45329;-75
2022/09/04 00:39:23;;;;;;;;;11.00;10.33;;;;;19.32;71.15;100970.56;5032252;28;46363;-76
2022/09/04 00:42:03;;;;;;;;;11.33;11.33;;;;;19.33;71.36;100982.16;5018500;28;45516;-76
2022/09/04 00:44:53;;;;;;;;;13.33;13.33;;;;;19.32;71.27;100981.31;5023432;28;45418;-76
2022/09/04 00:47:39;;;;;;;;;11.67;11.67;;;;;19.21;71.16;100974.81;5018927;28;45386;-77
2022/09/04 00:50:09;;;;;;;;;12.00;11.33;;;;;19.22;71.41;100983.75;5031271;28;48538;-76
2022/09/04 00:52:59;;;;;;;;;13.67;11.00;;;;;19.23;71.36;100975.44;5033121;28;45273;-76
2022/09/04 00:56:02;;;;;;;;;11.00;11.00;;;;;19.24;71.55;100979.75;5032635;28;45340;-76
2022/09/04 00:59:05;;;;;;;;;12.00;11.33;;;;;19.25;71.07;100980.59;5031232;28;45321;-76
2022/09/04 01:01:30;;;;;;;;;7.67;7.67;;;;;19.18;71.19;100978.81;5027526;28;45814;-76
2022/09/04 01:04:35;;;;;;;;;8.33;8.33;;;;;19.18;71.18;100989.56;5033123;28;45357;-76
2022/09/04 01:07:41;;;;;;;;;10.33;10.33;;;;;19.18;71.33;100994.13;5030882;28;45566;-76
2022/09/04 01:10:23;;;;;;;;;11.67;11.67;;;;;19.15;71.39;100994.56;5033159;28;47664;-76
2022/09/04 01:13:02;;;;;;;;;10.67;10.00;;;;;19.17;71.22;101003.28;5018186;28;45786;-77
2022/09/04 01:15:47;;;;;;;;;8.33;8.33;;;;;19.10;71.46;100989.06;5029772;28;45993;-76
2022/09/04 01:18:17;;;;;;;;;9.00;9.00;;;;;19.13;70.96;101007.47;5016676;28;45349;-77
2022/09/04 01:21:17;;;;;;;;;11.00;11.00;;;;;19.08;71.35;100993.84;5018782;28;45536;-76
2022/09/04 01:23:55;;;;;;;;;10.67;10.67;;;;;19.08;71.38;101000.06;5017923;28;45549;-76
2022/09/04 01:26:31;;;;;;;;;12.00;11.33;;;;;19.05;71.60;100998.63;5017992;28;45234;-76
2022/09/04 01:29:27;;;;;;;;;10.00;10.00;;;;;19.02;71.50;101000.94;5028128;28;45253;-76
2022/09/04 01:32:04;;;;;;;;;12.33;11.33;;;;;19.00;71.52;101006.53;5029703;28;45539;-76
2022/09/04 01:34:44;;;;;;;;;10.00;7.67;;;;;19.02;71.52;101015.22;5031240;28;47316;-76
2022/09/04 01:37:32;;;;;;;;;12.33;12.00;;;;;18.96;71.45;101002.66;5022914;28;45328;-76
2022/09/04 01:40:41;;;;;;;;;9.67;9.67;;;;;18.99;71.78;101015.66;5031033;28;45603;-76
2022/09/04 01:43:20;;;;;;;;;9.67;9.67;;;;;18.95;71.72;101005.56;5007516;28;46519;-77
2022/09/04 01:46:20;;;;;;;;;7.00;7.00;;;;;18.92;71.76;101007.66;5017269;28;45447;-76
2022/09/04 01:48:45;;;;;;;;;9.33;9.33;;;;;18.90;71.81;101007.06;5049238;28;45300;-76
2022/09/04 01:51:19;;;;;;;;;11.33;10.33;;;;;18.82;71.54;100991.19;5018377;28;45508;-76
2022/09/04 01:53:58;;;;;;;;;11.00;9.00;;;;;18.85;71.71;101003.41;5030387;28;46482;-76
2022/09/04 01:56:44;;;;;;;;;10.67;10.67;;;;;18.83;71.88;101005.50;5026207;28;47025;-76
2022/09/04 01:59:31;;;;;;;;;10.00;8.67;;;;;18.84;71.56;101007.97;5018458;28;45726;-77
2022/09/04 02:02:24;;;;;;;;;10.33;10.33;;;;;18.82;72.02;101014.63;5018169;28;45340;-77
2022/09/04 02:04:52;;;;;;;;;7.67;7.00;;;;;18.85;71.74;101019.56;5017734;28;45335;-76
2022/09/04 02:07:32;;;;;;;;;10.33;10.00;;;;;18.79;71.58;101003.25;5029551;28;47073;-76
2022/09/04 02:10:00;;;;;;;;;10.00;10.00;;;;;18.92;71.92;101021.13;5018215;28;45354;-77
2022/09/04 02:12:49;;;;;;;;;11.00;10.33;;;;;18.93;71.66;101016.56;5017389;27;45293;-76
2022/09/04 02:15:42;;;;;;;;;9.00;9.00;;;;;18.99;71.29;101028.31;5027604;28;46373;-75
2022/09/04 02:18:38;;;;;;;;;10.33;9.33;;;;;19.04;71.49;101033.84;5017900;28;45585;-77
2022/09/04 02:21:10;;;;;;;;;8.33;8.33;;;;;19.00;71.34;101027.25;5018038;28;45241;-76
2022/09/04 02:23:59;;;;;;;;;9.67;9.67;;;;;19.11;71.09;101036.50;5017776;28;45255;-76
2022/09/04 02:27:00;;;;;;;;;9.00;9.00;;;;;19.07;71.17;101030.72;5017311;28;45326;-76
2022/09/04 02:29:39;;;;;;;;;7.67;7.33;;;;;19.08;70.66;101031.56;5020389;27;45565;-76
2022/09/04 02:32:23;;;;;;;;;10.00;9.00;;;;;19.17;70.92;101043.69;5042635;28;45865;-76
2022/09/04 02:35:01;;;;;;;;;9.00;9.00;;;;;19.20;71.30;101037.00;5019976;28;45223;-76
2022/09/04 02:37:30;;;;;;;;;9.67;9.67;;;;;19.22;70.97;101040.31;5023940;28;46289;-76
2022/09/04 02:40:20;;;;;;;;;9.00;9.00;;;;;19.26;70.94;101042.34;5021782;28;47346;-76
2022/09/04 02:42:55;;;;;;;;;12.33;11.33;;;;;19.25;70.44;101050.66;5026098;28;45389;-77
2022/09/04 02:45:49;;;;;;;;;11.67;11.67;;;;;19.24;70.85;101051.69;5020414;28;45234;-76
2022/09/04 02:48:27;;;;;;;;;10.67;10.67;;;;;19.19;70.26;101046.97;5028806;28;46640;-76
2022/09/04 02:50:55;;;;;;;;;10.67;10.67;;;;;19.22;70.61;101051.09;5032479;28;47037;-77
2022/09/04 02:53:48;;;;;;;;;10.00;10.00;;;;;19.22;70.59;101051.09;5116686;27;45244;-76
2022/09/04 02:56:47;;;;;;;;;10.00;10.00;;;;;19.22;70.69;101059.16;5029131;28;45318;-76
2022/09/04 02:59:46;;;;;;;;;10.00;10.00;;;;;19.16;70.18;101050.94;5020295;28;45682;-76
2022/09/04 03:02:34;;;;;;;;;10.67;9.33;;;;;19.12;70.19;101051.59;5032481;28;47142;-76
2022/09/04 03:05:04;;;;;;;;;3.00;3.00;;;;;19.01;70.57;101040.50;5029496;28;45420;-76
2022/09/04 03:07:32;;;;;;;;;10.00;10.00;;;;;19.02;70.68;101055.63;5034481;28;45269;-76
2022/09/04 03:10:19;;;;;;;;;10.00;8.67;;;;;18.90;71.06;101047.47;5019597;28;45381;-76
2022/09/04 03:12:53;;;;;;;;;8.00;8.00;;;;;18.93;70.81;101065.88;5036623;28;47090;-76
2022/09/04 03:15:28;;;;;;;;;9.67;9.67;;;;;18.90;70.91;101068.16;5035219;28;45376;-77
2022/09/04 03:18:04;;;;;;;;;9.33;9.33;;;;;18.85;71.00;101068.84;5018589;28;45386;-76
2022/09/04 03:20:41;;;;;;;;;9.67;9.67;;;;;18.91;71.60;101067.94;5030326;28;46956;-77
2022/09/04 03:23:50;;;;;;;;;10.33;10.33;;;;;18.93;71.29;101059.66;5037319;28;46600;-77
2022/09/04 03:26:26;;;;;;;;;10.33;10.33;;;;;18.88;71.10;101054.94;5000295;28;45379;-76
2022/09/04 03:29:14;;;;;;;;;11.67;11.33;;;;;18.92;71.41;101058.81;5055610;27;45325;-77
2022/09/04 03:32:05;;;;;;;;;10.00;10.00;;;;;18.90;70.96;101054.72;5001031;28;45499;-77
2022/09/04 03:35:01;;;;;;;;;10.67;9.00;;;;;18.83;71.63;101064.72;5041506;27;48530;-76
2022/09/04 03:37:47;;;;;;;;;9.00;8.00;;;;;18.82;71.60;101065.78;5078972;27;45340;-76
2022/09/04 03:40:31;;;;;;;;;10.67;10.67;;;;;18.80;71.76;101069.50;5037246;28;45445;-76
2022/09/04 03:43:15;;;;;;;;;9.33;9.33;;;;;18.83;71.30;101068.25;5021160;28;45736;-76
2022/09/04 03:46:18;;;;;;;;;8.67;8.33;;;;;18.84;71.83;101067.19;5022193;28;45661;-76
2022/09/04 03:49:04;;;;;;;;;9.33;9.33;;;;;18.81;71.72;101062.25;5048348;28;45278;-76
2022/09/04 03:51:48;;;;;;;;;11.00;11.00;;;;;18.91;71.60;101069.81;5031576;28;45265;-76
2022/09/04 03:54:14;;;;;;;;;11.67;11.33;;;;;18.90;72.09;101068.16;5039752;28;46109;-76
2022/09/04 03:57:14;;;;;;;;;11.33;10.00;;;;;18.95;71.94;101075.59;5042901;28;47957;-76
2022/09/04 03:59:45;;;;;;;;;12.33;12.00;;;;;18.96;71.86;101078.06;5036294;28;45369;-76
2022/09/04 04:02:22;;;;;;;;;10.00;10.00;;;;;18.94;72.03;101072.06;5037819;28;45226;-76
2022/09/04 04:04:55;;;;;;;;;10.67;10.67;;;;;18.98;71.64;101081.38;5040303;28;47121;-76
2022/09/04 04:07:20;;;;;;;;;11.33;8.67;;;;;18.93;71.53;101076.63;5035182;28;48120;-76
2022/09/04 04:10:23;;;;;;;;;8.33;8.33;;;;;18.95;71.65;101086.34;5026771;28;45713;-76
2022/09/04 04:12:58;;;;;;;;;10.00;10.00;;;;;18.87;71.39;101082.91;5021641;27;45293;-77
2022/09/04 04:15:23;;;;;;;;;12.00;11.00;;;;;18.91;71.14;101094.03;5031527;28;47363;-77
2022/09/04 04:17:54;;;;;;;;;11.00;9.00;;;;;18.87;71.50;101092.84;5036528;28;46695;-76
2022/09/04 04:20:53;;;;;;;;;9.33;9.33;;;;;18.82;71.44;101092.69;5029922;28;45672;-77
2022/09/04 04:23:37;;;;;;;;;9.67;9.67;;;;;18.77;71.79;101087.97;5027194;28;45374;-76
2022/09/04 04:26:26;;;;;;;;;10.00;10.00;;;;;18.70;71.72;101084.53;5035985;28;46446;-77
2022/09/04 04:29:07;;;;;;;;;8.67;8.67;;;;;18.72;71.47;101087.78;5021902;28;45671;-76
2022/09/04 04:31:38;;;;;;;;;10.67;10.67;;;;;18.68;71.46;101092.81;5020954;28;45322;-76
2022/09/04 04:34:14;;;;;;;;;11.00;10.00;;;;;18.61;71.43;101084.78;5021776;28;45336;-77
2022/09/04 04:37:24;;;;;;;;;8.67;8.33;;;;;18.60;71.59;101093.06;5037924;28;47342;-76
2022/09/04 04:39:55;;;;;;;;;10.67;9.67;;;;;18.54;71.90;101095.63;5009856;28;48298;-76
2022/09/04 04:42:21;;;;;;;;;9.67;9.67;;;;;18.50;71.82;101094.38;5020510;28;45343;-76
2022/09/04 04:48:16;;;;;;;;;9.33;9.33;;;;;18.41;71.78;101095.72;5029803;28;45271;-76
2022/09/04 04:51:06;;;;;;;;;7.00;7.00;;;;;18.36;72.19;101099.06;5020254;28;45566;-76
2022/09/04 04:53:47;;;;;;;;;12.00;11.00;;;;;18.28;72.22;101100.13;5020384;28;46302;-77
2022/09/04 04:56:30;;;;;;;;;10.00;10.00;;;;;18.24;72.36;101100.78;5021189;28;45320;-76
2022/09/04 04:59:19;;;;;;;;;10.00;9.67;;;;;18.25;72.47;101110.50;5033522;28;46093;-77
2022/09/04 05:01:58;;;;;;;;;11.00;11.00;;;;;18.19;72.44;101106.00;5021508;28;47098;-75
2022/09/04 05:04:41;;;;;;;;;9.00;9.00;;;;;18.20;72.40;101107.66;5036181;28;45351;-75
2022/09/04 05:07:36;;;;;;;;;11.00;9.67;;;;;18.16;72.64;101120.69;5024014;28;45360;-76
2022/09/04 05:10:36;;;;;;;;;10.67;10.67;;;;;18.14;72.52;101122.78;5030844;28;46304;-76
2022/09/04 05:13:10;;;;;;;;;11.00;11.00;;;;;18.09;72.56;101123.41;5020062;28;45362;-77
2022/09/04 05:15:47;;;;;;;;;12.00;11.00;;;;;18.04;73.14;101126.72;5030581;28;45379;-76
2022/09/04 05:18:29;;;;;;;;;12.00;12.00;;;;;18.09;73.25;101134.16;5029569;28;45383;-76
2022/09/04 05:21:15;;;;;;;;;9.00;9.00;;;;;18.07;72.97;101133.53;5030285;28;46471;-77
2022/09/04 05:23:52;;;;;;;;;9.00;9.00;;;;;18.04;73.37;101131.28;5018305;28;46545;-76
2022/09/04 05:27:01;;;;;;;;;11.67;11.67;;;;;18.03;73.57;101148.47;5035432;28;45077;-76
2022/09/04 05:29:43;;;;;;;;;14.33;14.33;;;;;17.99;73.79;101147.25;5025808;28;45282;-76
2022/09/04 05:32:31;;;;;;;;;12.33;12.33;;;;;17.99;73.57;101161.50;5031355;28;45535;-77
2022/09/04 05:35:00;;;;;;;;;11.67;10.00;;;;;17.99;73.95;101161.50;5037836;28;47693;-77
2022/09/04 05:37:45;;;;;;;;;9.67;9.67;;;;;17.99;73.97;101163.38;5049546;28;45306;-76
2022/09/04 05:40:35;;;;;;;;;12.33;11.00;;;;;17.98;73.90;101167.91;5043342;28;45223;-76
2022/09/04 05:43:19;;;;;;;;;12.67;12.67;;;;;17.96;73.93;101166.50;5039548;28;45921;-76
2022/09/04 05:46:04;;;;;;;;;12.00;12.00;;;;;17.94;74.33;101174.78;5039438;28;47435;-76
2022/09/04 05:48:29;;;;;;;;;12.67;12.67;;;;;17.91;73.94;101177.88;5028405;28;45385;-76
2022/09/04 05:51:18;;;;;;;;;10.00;10.00;;;;;17.87;74.37;101180.16;5024855;28;45324;-77
2022/09/04 05:54:08;;;;;;;;;13.33;12.33;;;;;17.91;74.53;101181.41;5029117;28;46211;-77
2022/09/04 05:57:00;;;;;;;;;14.00;12.33;;;;;17.90;74.80;101184.31;5028962;28;48519;-79
2022/09/04 05:59:34;;;;;;;;;12.67;12.33;;;;;17.91;75.12;101191.31;5045607;28;45126;-78
2022/09/04 06:02:27;;;;;;;;;10.33;10.33;;;;;17.90;74.80;101197.75;5119124;27;44667;-78
2022/09/04 06:05:05;;;;;;;;;12.00;11.00;;;;;17.84;74.57;101180.59;5034766;28;45168;-78
2022/09/04 06:07:41;;;;;;;;;11.00;11.00;;;;;17.96;75.09;101193.38;5038725;27;45174;-77
2022/09/04 06:10:06;;;;;;;;;12.67;12.33;;;;;17.98;75.18;101204.72;5054034;28;45459;-77
2022/09/04 06:12:59;;;;;;;;;12.67;11.33;;;;;17.97;75.20;101205.78;5052030;28;45317;-78
2022/09/04 06:15:39;;;;;;;;;10.00;9.00;;;;;17.96;75.30;101206.81;5030565;28;47279;-78
2022/09/04 06:18:25;;;;;;;;;11.00;11.00;;;;;17.97;75.24;101212.00;5052750;28;47244;-77
2022/09/04 06:21:05;;;;;;;;;10.67;9.67;;;;;17.99;75.50;101207.22;5037721;28;45303;-78
2022/09/04 06:23:42;;;;;;;;;12.33;11.67;;;;;18.10;75.39;101210.28;5031431;28;45435;-80
2022/09/04 06:26:22;;;;;;;;;12.00;11.33;;;;;18.18;75.60;101210.06;5018750;28;45445;-80
2022/09/04 06:29:04;;;;;;;;;10.33;10.33;;;;;18.22;75.20;101203.22;5027237;27;47821;-80
2022/09/04 06:34:06;;;;;;;;;9.67;9.67;;;;;18.41;74.82;101209.53;5016227;28;67763;-80
2022/09/04 06:36:42;;;;;;;;;11.00;11.00;;;;;18.49;75.02;101226.47;5025192;28;47089;-80
2022/09/04 06:39:16;;;;;;;;;10.67;10.67;;;;;18.57;74.83;101222.69;5029284;28;48123;-80
2022/09/04 06:42:14;;;;;;;;;12.33;12.33;;;;;18.64;75.16;101226.16;5018587;28;45447;-80
2022/09/04 06:45:18;;;;;;;;;9.33;9.33;;;;;18.61;74.88;101222.06;5025535;28;45287;-79
2022/09/04 06:47:58;;;;;;;;;13.00;13.00;;;;;18.69;75.05;101234.44;5023542;28;45506;-81
2022/09/04 06:50:40;;;;;;;;;13.67;13.33;;;;;18.70;74.85;101224.50;5024886;28;45411;-83
2022/09/04 06:53:46;;;;;;;;;11.00;11.00;;;;;18.69;74.03;101229.06;5030452;28;45738;-80
2022/09/04 06:56:44;;;;;;;;;12.00;11.33;;;;;18.80;74.55;101241.81;5018912;27;45491;-81
2022/09/04 06:59:48;;;;;;;;;10.00;10.00;;;;;18.86;74.47;101239.31;5050727;28;45375;-79
2022/09/04 07:02:24;;;;;;;;;10.00;10.00;;;;;18.88;74.50;101238.03;5026835;28;45443;-81
2022/09/04 07:05:14;;;;;;;;;10.00;10.00;;;;;18.91;74.02;101237.59;5015880;28;45575;-81
2022/09/04 07:08:12;;;;;;;;;10.33;10.33;;;;;18.98;74.30;101232.19;5025022;28;45583;-81
2022/09/04 07:11:11;;;;;;;;;10.00;10.00;;;;;19.04;74.22;101231.28;5030845;27;46522;-80
2022/09/04 07:14:18;;;;;;;;;9.67;9.33;;;;;19.17;74.08;101241.19;5028435;28;46403;-80
2022/09/04 07:17:13;;;;;;;;;10.33;9.67;;;;;19.24;73.27;101246.50;5024796;28;45504;-82
2022/09/04 07:19:56;;;;;;;;;11.00;11.00;;;;;19.32;73.43;101245.41;5017645;28;45355;-81
2022/09/04 07:22:47;;;;;;;;;10.00;10.00;;;;;19.41;73.27;101251.31;5017643;28;45345;-82
2022/09/04 07:25:24;;;;;;;;;11.00;10.00;;;;;19.45;73.06;101239.06;5030522;28;48635;-81
2022/09/04 07:28:17;;;;;;;;;11.00;10.00;;;;;19.59;72.91;101252.41;5018442;28;46156;-81
2022/09/04 07:30:52;;;;;;;;;8.00;8.00;;;;;19.66;73.03;101250.47;5036676;28;45479;-83
2022/09/04 07:33:35;;;;;;;;;12.00;10.00;;;;;19.69;72.06;101241.94;5038978;28;45870;-84
2022/09/04 07:36:16;;;;;;;;;9.00;9.00;;;;;19.84;71.53;101257.75;5035714;28;47094;-85
2022/09/04 07:39:24;;;;;;;;;11.00;10.33;;;;;19.93;70.82;101263.66;5026082;27;45499;-85
2022/09/04 07:41:58;;;;;;;;;8.33;8.00;;;;;20.03;70.46;101260.50;5078246;28;45290;-84
2022/09/04 07:44:32;;;;;;;;;8.33;8.33;;;;;20.12;69.96;101264.53;5043255;28;46280;-85
2022/09/04 07:47:16;;;;;;;;;9.00;8.00;;;;;20.23;69.60;101254.84;5032570;28;45547;-83
2022/09/04 07:49:50;;;;;;;;;9.33;8.00;;;;;20.31;69.86;101262.63;5018057;28;45315;-84
2022/09/04 07:52:29;;;;;;;;;11.33;10.33;;;;;20.44;69.44;101266.19;5031339;28;45635;-84
2022/09/04 07:55:20;;;;;;;;;11.00;11.00;;;;;20.54;69.24;101263.81;5016160;28;46543;-84
2022/09/04 07:57:50;;;;;;;;;8.00;8.00;;;;;20.63;68.68;101271.56;5020438;28;45534;-84
2022/09/04 08:00:19;;;;;;;;;10.67;10.00;;;;;20.59;68.15;101255.00;5027766;28;45650;-84
2022/09/04 08:03:09;;;;;;;;;9.67;9.67;;;;;20.81;67.71;101276.91;5036192;28;45466;-85
2022/09/04 08:05:40;;;;;;;;;9.67;9.00;;;;;20.89;66.33;101275.75;5037222;28;46944;-83
2022/09/04 08:08:11;;;;;;;;;9.00;9.00;;;;;20.98;67.08;101276.28;5033613;28;48472;-85
2022/09/04 08:11:06;;;;;;;;;7.33;7.33;;;;;21.04;66.81;101279.94;5035043;28;45458;-83
2022/09/04 08:13:49;;;;;;;;;9.00;9.00;;;;;21.18;65.83;101283.25;5007529;28;45527;-84
2022/09/04 08:16:23;;;;;;;;;6.67;6.67;;;;;21.23;65.49;101279.84;5027955;28;45482;-84
2022/09/04 08:19:30;;;;;;;;;8.00;8.00;;;;;21.30;65.39;101276.00;5036321;28;48202;-84
2022/09/04 08:21:56;;;;;;;;;7.67;7.67;;;;;21.43;65.13;101280.34;5031550;28;46016;-85
2022/09/04 08:24:43;;;;;;;;;8.33;8.33;;;;;21.54;64.62;101281.41;5018488;28;45420;-84
2022/09/04 08:27:43;;;;;;;;;6.00;6.00;;;;;21.66;64.45;101283.28;5015791;28;47426;-84
2022/09/04 08:30:13;;;;;;;;;8.00;8.00;;;;;21.74;63.69;101280.22;5027758;28;47022;-84
2022/09/04 08:32:44;;;;;;;;;6.00;6.00;;;;;21.80;62.59;101283.91;5020356;28;45717;-83
2022/09/04 08:35:32;;;;;;;;;5.33;5.33;;;;;21.88;61.44;101290.81;5022782;28;45261;-83
2022/09/04 08:38:07;;;;;;;;;5.00;4.33;;;;;21.94;62.34;101284.47;5034009;28;47633;-82
2022/09/04 08:40:35;;;;;;;;;6.00;6.00;;;;;22.00;61.98;101296.22;5018161;28;47642;-83
2022/09/04 08:43:25;;;;;;;;;5.00;5.00;;;;;22.06;60.74;101287.97;5016816;28;45327;-83
2022/09/04 08:46:22;;;;;;;;;7.67;7.67;;;;;22.16;60.04;101297.34;5024422;28;45246;-83
2022/09/04 08:49:10;;;;;;;;;5.67;5.67;;;;;22.22;59.92;101290.16;5019217;28;45708;-82
2022/09/04 08:51:51;;;;;;;;;6.00;6.00;;;;;22.30;60.66;101293.31;5028560;28;47394;-84
2022/09/04 08:54:31;;;;;;;;;8.67;7.00;;;;;22.32;59.05;101290.38;5030417;28;46178;-85
2022/09/04 08:57:27;;;;;;;;;7.00;6.00;;;;;22.33;58.08;101292.84;5024284;28;45451;-85
2022/09/04 09:00:03;;;;;;;;;5.00;5.00;;;;;22.37;59.16;101292.34;5055205;28;46144;-84
2022/09/04 09:02:59;;;;;;;;;8.00;6.00;;;;;22.46;58.45;101293.63;5033735;28;45497;-84
2022/09/04 09:05:24;;;;;;;;;5.00;5.00;;;;;22.55;58.10;101307.59;5029401;28;45309;-84
2022/09/04 09:08:26;;;;;;;;;5.00;5.00;;;;;22.58;57.95;101304.44;5036197;28;45640;-85
2022/09/04 09:11:12;;;;;;;;;6.00;6.00;;;;;22.66;57.41;101297.81;5034008;28;46279;-83
2022/09/04 09:14:08;;;;;;;;;5.00;4.33;;;;;22.69;56.68;101303.56;5031915;28;46172;-83
2022/09/04 09:16:48;;;;;;;;;5.33;5.33;;;;;22.80;56.33;101307.28;5028529;28;46148;-83
2022/09/04 09:19:42;;;;;;;;;5.00;5.00;;;;;22.91;56.42;101310.19;5058896;28;45478;-84
2022/09/04 09:22:35;;;;;;;;;5.67;5.67;;;;;22.97;57.00;101314.63;5041324;28;46808;-83
2022/09/04 09:25:33;;;;;;;;;5.00;5.00;;;;;23.05;56.57;101302.56;5039179;28;48131;-83
2022/09/04 09:28:08;;;;;;;;;5.67;5.67;;;;;23.24;56.77;101302.31;5027868;28;45762;-83
2022/09/04 09:31:01;;;;;;;;;6.00;5.00;;;;;23.35;55.70;101304.13;5021020;28;45333;-83
2022/09/04 09:33:54;;;;;;;;;6.00;5.00;;;;;23.50;54.96;101300.03;5032505;28;45877;-83
2022/09/04 09:36:22;;;;;;;;;5.00;5.00;;;;;23.54;54.51;101306.59;5033950;28;48120;-83
2022/09/04 09:39:05;;;;;;;;;3.67;3.67;;;;;23.55;54.77;101298.22;5034544;28;45396;-82
2022/09/04 09:41:59;;;;;;;;;6.67;6.33;;;;;23.66;53.69;101306.50;5018105;28;45439;-80
2022/09/04 09:45:00;;;;;;;;;5.00;5.00;;;;;23.73;53.98;101298.22;5016592;28;45309;-79
2022/09/04 09:47:46;;;;;;;;;6.00;6.00;;;;;23.85;53.79;101304.31;5054818;28;47438;-80
2022/09/04 09:50:21;;;;;;;;;3.33;3.00;;;;;23.93;53.69;101294.94;5034686;28;45542;-81
2022/09/04 09:52:59;;;;;;;;;5.67;5.67;;;;;24.02;51.88;101301.56;5032205;28;45340;-80
2022/09/04 09:55:33;;;;;;;;;5.33;4.67;;;;;24.14;52.96;101303.38;5034455;28;45611;-77
2022/09/04 09:58:01;;;;;;;;;3.33;3.33;;;;;24.28;52.75;101299.22;5036407;28;45387;-80
2022/09/04 10:00:38;;;;;;;;;3.00;3.00;;;;;24.33;51.68;101296.53;5028093;28;45549;-79
2022/09/04 10:03:25;;;;;;;;;6.00;4.00;;;;;24.49;51.84;101304.88;5034206;28;45381;-79
2022/09/04 10:06:25;;;;;;;;;2.67;2.33;;;;;24.64;51.34;101293.34;5033864;28;47257;-78
2022/09/04 10:09:14;;;;;;;;;5.67;5.33;;;;;24.82;50.94;101292.16;5030076;28;47195;-80
2022/09/04 10:12:06;;;;;;;;;5.33;4.33;;;;;25.09;50.61;101290.50;5035079;28;45365;-80
2022/09/04 10:14:46;;;;;;;;;3.33;3.33;;;;;25.31;50.62;101284.97;5031826;28;45339;-81
2022/09/04 10:17:40;;;;;;;;;4.67;4.00;;;;;25.52;49.18;101287.81;5021353;28;45277;-80
2022/09/04 10:20:25;;;;;;;;;5.00;5.00;;;;;25.73;49.71;101287.97;5041417;28;48638;-81
2022/09/04 10:23:29;;;;;;;;;4.33;4.33;;;;;25.96;48.32;101283.19;5031985;28;45331;-80
2022/09/04 10:26:13;;;;;;;;;4.00;4.00;;;;;26.22;49.25;101294.97;5030712;28;45389;-79
2022/09/04 10:29:10;;;;;;;;;4.00;4.00;;;;;26.44;47.97;101274.94;5032325;28;46168;-78
2022/09/04 10:31:44;;;;;;;;;3.33;3.33;;;;;26.64;47.13;101278.78;5116192;27;46475;-81
2022/09/04 10:34:28;;;;;;;;;4.33;4.33;;;;;26.83;47.11;101276.34;5028134;28;45958;-79
2022/09/04 10:37:12;;;;;;;;;4.00;4.00;;;;;27.03;45.28;101271.19;5022489;28;45405;-80
2022/09/04 10:40:34;;;;;;;;;4.33;4.00;;;;;27.22;45.52;101271.44;5026939;28;45381;-83
2022/09/04 10:43:37;;;;;;;;;7.33;7.33;;;;;27.39;45.81;101268.44;5034307;27;46828;-81
2022/09/04 10:46:33;;;;;;;;;6.33;5.00;;;;;27.56;46.19;101270.81;5031099;28;45289;-82
2022/09/04 10:49:15;;;;;;;;;5.67;4.67;;;;;27.70;45.03;101268.38;5046871;28;45410;-81
2022/09/04 10:52:04;;;;;;;;;4.00;4.00;;;;;27.79;45.29;101265.03;5032694;28;45395;-81
2022/09/04 10:54:42;;;;;;;;;4.00;4.00;;;;;27.93;44.95;101268.00;5029062;27;47182;-81
2022/09/04 10:57:21;;;;;;;;;4.00;4.00;;;;;28.07;45.00;101270.97;5032744;28;45312;-80
2022/09/04 10:59:59;;;;;;;;;4.67;4.00;;;;;28.26;43.00;101273.03;5025500;28;45274;-77
2022/09/04 11:02:35;;;;;;;;;4.33;4.33;;;;;28.35;43.74;101255.78;5032211;28;45313;-78
2022/09/04 11:05:05;;;;;;;;;3.00;2.33;;;;;28.55;43.61;101264.16;5032741;28;46585;-77
2022/09/04 11:08:06;;;;;;;;;3.00;3.00;;;;;28.66;43.45;101262.97;5035406;28;45389;-77
2022/09/04 11:10:38;;;;;;;;;3.00;3.00;;;;;28.77;43.40;101266.44;5033689;28;45519;-83
2022/09/04 11:13:22;;;;;;;;;4.67;4.67;;;;;28.89;43.21;101266.06;5029629;28;47278;-80
2022/09/04 11:16:08;;;;;;;;;4.00;4.00;;;;;29.02;42.57;101250.09;5016161;28;47027;-79
2022/09/04 11:18:57;;;;;;;;;3.00;3.00;;;;;29.17;41.82;101260.91;5026315;28;45257;-80
2022/09/04 11:22:13;;;;;;;;;4.00;3.33;;;;;29.26;42.45;101266.56;5021985;28;45311;-79
2022/09/04 11:24:58;;;;;;;;;5.67;4.67;;;;;29.38;42.13;101252.47;5035810;28;45328;-79
2022/09/04 11:27:57;;;;;;;;;6.00;6.00;;;;;29.45;41.81;101252.94;5026784;27;47496;-79
2022/09/04 11:30:52;;;;;;;;;3.33;3.33;;;;;29.53;41.44;101251.50;5057066;28;45528;-80
2022/09/04 11:33:55;;;;;;;;;5.00;5.00;;;;;29.58;40.73;101254.22;5021675;28;45229;-80
2022/09/04 11:36:39;;;;;;;;;4.00;4.00;;;;;29.65;41.17;101242.09;5023783;28;46087;-80
2022/09/04 11:39:36;;;;;;;;;4.33;4.33;;;;;29.78;40.10;101249.56;5023558;28;45780;-79
2022/09/04 11:42:28;;;;;;;;;4.00;4.00;;;;;29.91;41.06;101244.50;5021166;28;45284;-78
2022/09/04 11:45:08;;;;;;;;;3.33;3.33;;;;;29.95;40.02;101240.88;5024693;28;45692;-79
2022/09/04 11:47:56;;;;;;;;;4.00;4.00;;;;;30.10;39.32;101245.34;5038283;28;45314;-78
2022/09/04 11:50:36;;;;;;;;;5.00;5.00;;;;;30.23;39.88;101240.25;5022448;28;46546;-77
2022/09/04 11:53:07;;;;;;;;;5.67;5.67;;;;;30.39;40.39;101240.00;5040353;28;46055;-78
2022/09/04 11:55:51;;;;;;;;;3.67;3.67;;;;;30.49;39.81;101239.84;5038761;28;45575;-77
2022/09/04 11:58:46;;;;;;;;;5.33;5.00;;;;;30.64;40.49;101235.25;5026431;28;45569;-77
2022/09/04 12:01:13;;;;;;;;;4.00;4.00;;;;;30.74;39.34;101237.81;5017968;28;45480;-78
2022/09/04 12:03:54;;;;;;;;;3.00;3.00;;;;;30.87;40.20;101230.75;5028757;27;45665;-79
2022/09/04 12:06:28;;;;;;;;;5.33;3.33;;;;;30.91;38.77;101233.72;5029310;28;45525;-80
2022/09/04 12:09:00;;;;;;;;;5.00;5.00;;;;;30.93;37.88;101239.72;5016734;28;45287;-82
2022/09/04 12:11:37;;;;;;;;;3.67;3.67;;;;;30.99;37.54;101233.03;5023567;28;47353;-78
2022/09/04 12:14:25;;;;;;;;;3.67;3.67;;;;;31.10;38.20;101236.41;5022457;28;45208;-79
2022/09/04 12:17:18;;;;;;;;;3.67;3.67;;;;;31.13;38.01;101233.06;5027290;28;45317;-79
2022/09/04 12:19:52;;;;;;;;;3.67;3.67;;;;;31.24;37.09;101231.72;5023715;28;45882;-78
2022/09/04 12:22:56;;;;;;;;;4.00;4.00;;;;;31.36;37.57;101225.75;5032835;28;46300;-79
2022/09/04 12:25:42;;;;;;;;;5.00;3.67;;;;;31.51;37.43;101234.81;5020336;28;45317;-84
2022/09/04 12:28:33;;;;;;;;;4.33;4.33;;;;;31.68;37.13;101233.38;5030794;27;45346;-82
2022/09/04 12:31:05;;;;;;;;;3.00;3.00;;;;;31.71;36.12;101221.78;5037399;28;45954;-82
2022/09/04 12:33:51;;;;;;;;;4.00;4.00;;;;;31.77;36.80;101225.22;5023187;28;48286;-79
2022/09/04 12:36:41;;;;;;;;;4.00;4.00;;;;;31.82;36.90;101214.13;5120431;27;46177;-80
2022/09/04 12:39:34;;;;;;;;;4.00;4.00;;;;;31.92;36.13;101219.44;5026147;28;45518;-80
2022/09/04 12:42:05;;;;;;;;;3.00;3.00;;;;;32.00;35.82;101217.88;5033537;28;45467;-79
2022/09/04 12:44:40;;;;;;;;;4.00;4.00;;;;;32.03;35.55;101216.44;5023429;28;48345;-84